sensor_id;sensor_type;location;lat;lon;timestamp;P1;durP1;ratioP1;P2;durP2;ratioP2
9306;SDS011;4691;47.612;7.610;2023-02-28T00:01:07;10.25;;;6.47;;
9306;SDS011;4691;47.612;7.610;2023-02-28T00:03:32;8.93;;;7.15;;
9306;SDS011;4691;47.612;7.610;2023-02-28T00:06:00;10.93;;;7.20;;
9306;SDS011;4691;47.612;7.610;2023-02-28T00:08:27;9.52;;;6.85;;
9306;SDS011;4691;47.612;7.610;2023-02-28T00:10:52;12.70;;;7.18;;
9306;SDS011;4691;47.612;7.610;2023-02-28T00:13:17;11.57;;;7.00;;
9306;SDS011;4691;47.612;7.610;2023-02-28T00:15:42;11.13;;;7.20;;
9306;SDS011;4691;47.612;7.610;2023-02-28T00:18:09;7.85;;;6.47;;
9306;SDS011;4691;47.612;7.610;2023-02-28T00:20:34;9.10;;;6.78;;
9306;SDS011;4691;47.612;7.610;2023-02-28T00:22:59;10.75;;;7.13;;
9306;SDS011;4691;47.612;7.610;2023-02-28T00:25:25;8.82;;;6.40;;
9306;SDS011;4691;47.612;7.610;2023-02-28T00:27:50;9.50;;;6.75;;
9306;SDS011;4691;47.612;7.610;2023-02-28T00:30:17;11.68;;;7.32;;
9306;SDS011;4691;47.612;7.610;2023-02-28T00:32:44;11.90;;;7.45;;
9306;SDS011;4691;47.612;7.610;2023-02-28T00:35:10;12.00;;;7.25;;
9306;SDS011;4691;47.612;7.610;2023-02-28T00:37:36;13.30;;;6.90;;
9306;SDS011;4691;47.612;7.610;2023-02-28T00:40:02;9.52;;;7.25;;
9306;SDS011;4691;47.612;7.610;2023-02-28T00:42:30;11.05;;;6.93;;
9306;SDS011;4691;47.612;7.610;2023-02-28T00:44:55;10.85;;;7.05;;
9306;SDS011;4691;47.612;7.610;2023-02-28T00:47:21;10.95;;;7.50;;
9306;SDS011;4691;47.612;7.610;2023-02-28T00:49:46;10.40;;;7.03;;
9306;SDS011;4691;47.612;7.610;2023-02-28T00:52:11;11.50;;;6.88;;
9306;SDS011;4691;47.612;7.610;2023-02-28T00:54:37;10.10;;;7.00;;
9306;SDS011;4691;47.612;7.610;2023-02-28T00:57:02;10.63;;;6.97;;
9306;SDS011;4691;47.612;7.610;2023-02-28T00:59:27;10.65;;;7.07;;
9306;SDS011;4691;47.612;7.610;2023-02-28T01:01:53;12.52;;;7.85;;
9306;SDS011;4691;47.612;7.610;2023-02-28T01:04:18;9.38;;;7.05;;
9306;SDS011;4691;47.612;7.610;2023-02-28T01:06:43;10.95;;;7.60;;
9306;SDS011;4691;47.612;7.610;2023-02-28T01:09:09;10.63;;;7.15;;
9306;SDS011;4691;47.612;7.610;2023-02-28T01:11:35;12.95;;;7.43;;
9306;SDS011;4691;47.612;7.610;2023-02-28T01:14:00;13.20;;;7.20;;
9306;SDS011;4691;47.612;7.610;2023-02-28T01:16:27;10.10;;;7.00;;
9306;SDS011;4691;47.612;7.610;2023-02-28T01:18:52;10.60;;;7.13;;
9306;SDS011;4691;47.612;7.610;2023-02-28T01:21:18;10.00;;;6.88;;
9306;SDS011;4691;47.612;7.610;2023-02-28T01:23:46;10.60;;;7.75;;
9306;SDS011;4691;47.612;7.610;2023-02-28T01:26:15;11.52;;;6.95;;
9306;SDS011;4691;47.612;7.610;2023-02-28T01:28:42;11.68;;;7.93;;
9306;SDS011;4691;47.612;7.610;2023-02-28T01:31:08;11.27;;;7.07;;
9306;SDS011;4691;47.612;7.610;2023-02-28T01:33:34;9.75;;;7.28;;
9306;SDS011;4691;47.612;7.610;2023-02-28T01:36:00;10.45;;;7.35;;
9306;SDS011;4691;47.612;7.610;2023-02-28T01:38:31;11.77;;;7.60;;
9306;SDS011;4691;47.612;7.610;2023-02-28T01:40:57;11.00;;;7.82;;
9306;SDS011;4691;47.612;7.610;2023-02-28T01:45:52;11.77;;;7.78;;
9306;SDS011;4691;47.612;7.610;2023-02-28T01:48:19;10.00;;;7.45;;
9306;SDS011;4691;47.612;7.610;2023-02-28T01:50:48;12.25;;;7.22;;
9306;SDS011;4691;47.612;7.610;2023-02-28T01:53:16;13.80;;;7.88;;
9306;SDS011;4691;47.612;7.610;2023-02-28T01:55:45;11.57;;;7.68;;
9306;SDS011;4691;47.612;7.610;2023-02-28T01:58:13;11.98;;;7.07;;
9306;SDS011;4691;47.612;7.610;2023-02-28T02:00:38;11.30;;;7.97;;
9306;SDS011;4691;47.612;7.610;2023-02-28T02:03:09;13.77;;;8.52;;
9306;SDS011;4691;47.612;7.610;2023-02-28T02:05:38;12.73;;;8.10;;
9306;SDS011;4691;47.612;7.610;2023-02-28T02:08:05;14.30;;;7.40;;
9306;SDS011;4691;47.612;7.610;2023-02-28T02:10:53;11.20;;;7.75;;
9306;SDS011;4691;47.612;7.610;2023-02-28T02:13:28;10.95;;;7.85;;
9306;SDS011;4691;47.612;7.610;2023-02-28T02:16:18;10.27;;;7.30;;
9306;SDS011;4691;47.612;7.610;2023-02-28T02:18:50;11.90;;;7.68;;
9306;SDS011;4691;47.612;7.610;2023-02-28T02:24:33;12.18;;;7.75;;
9306;SDS011;4691;47.612;7.610;2023-02-28T02:35:56;11.00;;;7.28;;
9306;SDS011;4691;47.612;7.610;2023-02-28T02:38:54;11.98;;;7.50;;
9306;SDS011;4691;47.612;7.610;2023-02-28T02:41:39;10.07;;;6.97;;
9306;SDS011;4691;47.612;7.610;2023-02-28T02:44:25;11.93;;;8.23;;
9306;SDS011;4691;47.612;7.610;2023-02-28T02:46:55;11.07;;;8.10;;
9306;SDS011;4691;47.612;7.610;2023-02-28T02:49:28;9.68;;;7.15;;
9306;SDS011;4691;47.612;7.610;2023-02-28T02:51:56;11.68;;;7.55;;
9306;SDS011;4691;47.612;7.610;2023-02-28T02:54:28;9.70;;;7.55;;
9306;SDS011;4691;47.612;7.610;2023-02-28T02:56:59;11.60;;;7.40;;
9306;SDS011;4691;47.612;7.610;2023-02-28T02:59:28;10.25;;;6.97;;
9306;SDS011;4691;47.612;7.610;2023-02-28T03:01:57;9.43;;;6.18;;
9306;SDS011;4691;47.612;7.610;2023-02-28T03:04:27;10.68;;;6.95;;
9306;SDS011;4691;47.612;7.610;2023-02-28T03:06:57;7.75;;;5.85;;
9306;SDS011;4691;47.612;7.610;2023-02-28T03:09:22;8.60;;;6.60;;
9306;SDS011;4691;47.612;7.610;2023-02-28T03:11:49;10.00;;;6.55;;
9306;SDS011;4691;47.612;7.610;2023-02-28T03:22:14;17.75;;;8.52;;
9306;SDS011;4691;47.612;7.610;2023-02-28T03:25:07;10.55;;;7.07;;
9306;SDS011;4691;47.612;7.610;2023-02-28T03:33:16;13.90;;;7.95;;
9306;SDS011;4691;47.612;7.610;2023-02-28T03:35:55;11.73;;;8.48;;
9306;SDS011;4691;47.612;7.610;2023-02-28T03:38:34;13.57;;;8.88;;
9306;SDS011;4691;47.612;7.610;2023-02-28T03:41:09;16.30;;;10.00;;
9306;SDS011;4691;47.612;7.610;2023-02-28T03:43:40;13.82;;;9.43;;
9306;SDS011;4691;47.612;7.610;2023-02-28T03:46:10;14.50;;;9.73;;
9306;SDS011;4691;47.612;7.610;2023-02-28T03:48:44;18.05;;;10.35;;
9306;SDS011;4691;47.612;7.610;2023-02-28T03:51:14;20.33;;;11.07;;
9306;SDS011;4691;47.612;7.610;2023-02-28T03:53:53;14.80;;;9.25;;
9306;SDS011;4691;47.612;7.610;2023-02-28T03:56:24;15.57;;;9.70;;
9306;SDS011;4691;47.612;7.610;2023-02-28T04:01:37;17.40;;;10.52;;
9306;SDS011;4691;47.612;7.610;2023-02-28T04:04:06;15.30;;;10.18;;
9306;SDS011;4691;47.612;7.610;2023-02-28T04:06:32;15.70;;;11.35;;
9306;SDS011;4691;47.612;7.610;2023-02-28T04:08:59;17.08;;;10.82;;
9306;SDS011;4691;47.612;7.610;2023-02-28T04:14:04;22.27;;;13.18;;
9306;SDS011;4691;47.612;7.610;2023-02-28T04:16:32;17.05;;;11.00;;
9306;SDS011;4691;47.612;7.610;2023-02-28T04:18:59;35.92;;;22.25;;
9306;SDS011;4691;47.612;7.610;2023-02-28T04:21:31;19.13;;;11.82;;
9306;SDS011;4691;47.612;7.610;2023-02-28T04:23:58;17.92;;;11.95;;
9306;SDS011;4691;47.612;7.610;2023-02-28T04:26:27;21.35;;;12.50;;
9306;SDS011;4691;47.612;7.610;2023-02-28T04:28:56;20.02;;;11.60;;
9306;SDS011;4691;47.612;7.610;2023-02-28T04:31:21;18.60;;;11.50;;
9306;SDS011;4691;47.612;7.610;2023-02-28T04:33:46;18.05;;;11.45;;
9306;SDS011;4691;47.612;7.610;2023-02-28T04:36:12;18.38;;;11.38;;
9306;SDS011;4691;47.612;7.610;2023-02-28T04:38:39;20.00;;;11.95;;
9306;SDS011;4691;47.612;7.610;2023-02-28T04:41:04;19.90;;;12.43;;
9306;SDS011;4691;47.612;7.610;2023-02-28T04:43:30;19.35;;;12.40;;
9306;SDS011;4691;47.612;7.610;2023-02-28T04:45:56;21.83;;;13.55;;
9306;SDS011;4691;47.612;7.610;2023-02-28T04:48:23;17.30;;;11.60;;
9306;SDS011;4691;47.612;7.610;2023-02-28T04:50:49;19.83;;;12.23;;
9306;SDS011;4691;47.612;7.610;2023-02-28T04:53:16;24.70;;;13.02;;
9306;SDS011;4691;47.612;7.610;2023-02-28T04:55:43;24.48;;;14.30;;
9306;SDS011;4691;47.612;7.610;2023-02-28T04:58:08;26.92;;;13.80;;
9306;SDS011;4691;47.612;7.610;2023-02-28T05:00:33;23.38;;;13.40;;
9306;SDS011;4691;47.612;7.610;2023-02-28T05:02:59;21.98;;;13.30;;
9306;SDS011;4691;47.612;7.610;2023-02-28T05:05:24;22.10;;;12.70;;
9306;SDS011;4691;47.612;7.610;2023-02-28T05:07:50;21.33;;;13.40;;
9306;SDS011;4691;47.612;7.610;2023-02-28T05:10:15;24.75;;;13.13;;
9306;SDS011;4691;47.612;7.610;2023-02-28T05:12:41;23.25;;;13.75;;
9306;SDS011;4691;47.612;7.610;2023-02-28T05:15:06;22.70;;;13.73;;
9306;SDS011;4691;47.612;7.610;2023-02-28T05:17:33;23.92;;;13.70;;
9306;SDS011;4691;47.612;7.610;2023-02-28T05:19:58;20.63;;;13.77;;
9306;SDS011;4691;47.612;7.610;2023-02-28T05:22:24;27.60;;;14.73;;
9306;SDS011;4691;47.612;7.610;2023-02-28T05:24:49;27.42;;;13.63;;
9306;SDS011;4691;47.612;7.610;2023-02-28T05:27:14;24.35;;;14.05;;
9306;SDS011;4691;47.612;7.610;2023-02-28T05:29:40;24.95;;;13.55;;
9306;SDS011;4691;47.612;7.610;2023-02-28T05:32:10;27.42;;;15.18;;
9306;SDS011;4691;47.612;7.610;2023-02-28T05:34:37;19.92;;;13.48;;
9306;SDS011;4691;47.612;7.610;2023-02-28T05:37:04;29.90;;;15.02;;
9306;SDS011;4691;47.612;7.610;2023-02-28T05:39:30;22.75;;;13.20;;
9306;SDS011;4691;47.612;7.610;2023-02-28T05:41:55;30.98;;;16.83;;
9306;SDS011;4691;47.612;7.610;2023-02-28T05:44:21;25.60;;;15.35;;
9306;SDS011;4691;47.612;7.610;2023-02-28T05:46:46;26.67;;;15.75;;
9306;SDS011;4691;47.612;7.610;2023-02-28T05:49:11;35.10;;;19.42;;
9306;SDS011;4691;47.612;7.610;2023-02-28T05:51:37;29.45;;;16.63;;
9306;SDS011;4691;47.612;7.610;2023-02-28T05:54:04;25.25;;;14.45;;
9306;SDS011;4691;47.612;7.610;2023-02-28T05:56:31;31.63;;;16.02;;
9306;SDS011;4691;47.612;7.610;2023-02-28T05:58:56;29.08;;;16.65;;
9306;SDS011;4691;47.612;7.610;2023-02-28T06:04:02;29.58;;;16.70;;
9306;SDS011;4691;47.612;7.610;2023-02-28T06:06:28;27.67;;;14.70;;
9306;SDS011;4691;47.612;7.610;2023-02-28T06:08:54;32.85;;;18.15;;
9306;SDS011;4691;47.612;7.610;2023-02-28T06:11:20;34.40;;;17.80;;
9306;SDS011;4691;47.612;7.610;2023-02-28T06:13:45;26.05;;;14.40;;
9306;SDS011;4691;47.612;7.610;2023-02-28T06:16:11;28.75;;;14.77;;
9306;SDS011;4691;47.612;7.610;2023-02-28T06:18:36;30.92;;;17.38;;
9306;SDS011;4691;47.612;7.610;2023-02-28T06:21:02;31.02;;;17.55;;
9306;SDS011;4691;47.612;7.610;2023-02-28T06:23:27;32.58;;;17.55;;
9306;SDS011;4691;47.612;7.610;2023-02-28T06:25:53;35.17;;;18.13;;
9306;SDS011;4691;47.612;7.610;2023-02-28T06:28:21;31.05;;;15.73;;
9306;SDS011;4691;47.612;7.610;2023-02-28T06:30:46;33.55;;;16.88;;
9306;SDS011;4691;47.612;7.610;2023-02-28T06:33:11;33.30;;;18.60;;
9306;SDS011;4691;47.612;7.610;2023-02-28T06:35:36;32.42;;;17.50;;
9306;SDS011;4691;47.612;7.610;2023-02-28T06:38:02;32.25;;;17.85;;
9306;SDS011;4691;47.612;7.610;2023-02-28T06:40:28;33.78;;;17.63;;
9306;SDS011;4691;47.612;7.610;2023-02-28T06:42:56;31.17;;;16.52;;
9306;SDS011;4691;47.612;7.610;2023-02-28T06:45:22;35.60;;;18.52;;
9306;SDS011;4691;47.612;7.610;2023-02-28T06:47:47;32.60;;;16.27;;
9306;SDS011;4691;47.612;7.610;2023-02-28T06:50:17;30.73;;;17.70;;
9306;SDS011;4691;47.612;7.610;2023-02-28T06:52:45;28.52;;;15.13;;
9306;SDS011;4691;47.612;7.610;2023-02-28T06:55:11;37.05;;;19.73;;
9306;SDS011;4691;47.612;7.610;2023-02-28T06:57:36;37.10;;;19.33;;
9306;SDS011;4691;47.612;7.610;2023-02-28T07:00:04;42.63;;;20.15;;
9306;SDS011;4691;47.612;7.610;2023-02-28T07:02:32;34.90;;;17.45;;
9306;SDS011;4691;47.612;7.610;2023-02-28T07:04:58;39.88;;;18.55;;
9306;SDS011;4691;47.612;7.610;2023-02-28T07:07:23;37.60;;;19.52;;
9306;SDS011;4691;47.612;7.610;2023-02-28T07:09:48;45.95;;;21.17;;
9306;SDS011;4691;47.612;7.610;2023-02-28T07:12:14;34.72;;;17.35;;
9306;SDS011;4691;47.612;7.610;2023-02-28T07:14:39;38.17;;;20.38;;
9306;SDS011;4691;47.612;7.610;2023-02-28T07:17:06;44.13;;;20.02;;
9306;SDS011;4691;47.612;7.610;2023-02-28T07:19:32;44.63;;;20.95;;
9306;SDS011;4691;47.612;7.610;2023-02-28T07:21:58;42.95;;;20.30;;
9306;SDS011;4691;47.612;7.610;2023-02-28T07:24:23;38.53;;;19.73;;
9306;SDS011;4691;47.612;7.610;2023-02-28T07:26:50;40.85;;;20.55;;
9306;SDS011;4691;47.612;7.610;2023-02-28T07:29:16;41.83;;;19.92;;
9306;SDS011;4691;47.612;7.610;2023-02-28T07:31:41;34.83;;;17.08;;
9306;SDS011;4691;47.612;7.610;2023-02-28T07:34:06;37.72;;;19.92;;
9306;SDS011;4691;47.612;7.610;2023-02-28T07:36:31;31.50;;;16.70;;
9306;SDS011;4691;47.612;7.610;2023-02-28T07:38:58;41.55;;;18.50;;
9306;SDS011;4691;47.612;7.610;2023-02-28T07:41:23;32.25;;;17.30;;
9306;SDS011;4691;47.612;7.610;2023-02-28T07:43:53;39.08;;;18.63;;
9306;SDS011;4691;47.612;7.610;2023-02-28T07:46:20;41.30;;;18.58;;
9306;SDS011;4691;47.612;7.610;2023-02-28T07:48:46;31.42;;;16.52;;
9306;SDS011;4691;47.612;7.610;2023-02-28T07:51:11;38.50;;;19.08;;
9306;SDS011;4691;47.612;7.610;2023-02-28T07:53:37;37.53;;;18.83;;
9306;SDS011;4691;47.612;7.610;2023-02-28T07:56:02;34.72;;;17.80;;
9306;SDS011;4691;47.612;7.610;2023-02-28T07:58:28;43.25;;;20.17;;
9306;SDS011;4691;47.612;7.610;2023-02-28T08:00:54;35.33;;;18.75;;
9306;SDS011;4691;47.612;7.610;2023-02-28T08:03:21;33.17;;;17.70;;
9306;SDS011;4691;47.612;7.610;2023-02-28T08:05:47;44.92;;;20.77;;
9306;SDS011;4691;47.612;7.610;2023-02-28T08:08:13;36.03;;;18.20;;
9306;SDS011;4691;47.612;7.610;2023-02-28T08:10:39;32.35;;;16.90;;
9306;SDS011;4691;47.612;7.610;2023-02-28T08:13:05;35.38;;;18.45;;
9306;SDS011;4691;47.612;7.610;2023-02-28T08:15:30;39.97;;;19.42;;
9306;SDS011;4691;47.612;7.610;2023-02-28T08:17:56;41.10;;;19.90;;
9306;SDS011;4691;47.612;7.610;2023-02-28T08:20:22;41.30;;;20.35;;
9306;SDS011;4691;47.612;7.610;2023-02-28T08:22:48;35.15;;;17.75;;
9306;SDS011;4691;47.612;7.610;2023-02-28T08:25:13;38.17;;;18.73;;
9306;SDS011;4691;47.612;7.610;2023-02-28T08:27:39;34.42;;;17.85;;
9306;SDS011;4691;47.612;7.610;2023-02-28T08:30:04;40.15;;;18.98;;
9306;SDS011;4691;47.612;7.610;2023-02-28T08:32:31;35.40;;;19.52;;
9306;SDS011;4691;47.612;7.610;2023-02-28T08:34:58;38.55;;;19.52;;
9306;SDS011;4691;47.612;7.610;2023-02-28T08:37:23;37.60;;;18.70;;
9306;SDS011;4691;47.612;7.610;2023-02-28T08:39:48;39.92;;;17.27;;
9306;SDS011;4691;47.612;7.610;2023-02-28T08:42:14;35.15;;;17.70;;
9306;SDS011;4691;47.612;7.610;2023-02-28T08:44:39;35.92;;;18.10;;
9306;SDS011;4691;47.612;7.610;2023-02-28T08:47:05;32.85;;;16.90;;
9306;SDS011;4691;47.612;7.610;2023-02-28T08:49:31;32.28;;;18.10;;
9306;SDS011;4691;47.612;7.610;2023-02-28T08:51:56;34.55;;;18.30;;
9306;SDS011;4691;47.612;7.610;2023-02-28T08:54:22;35.58;;;18.02;;
9306;SDS011;4691;47.612;7.610;2023-02-28T08:56:47;36.92;;;18.50;;
9306;SDS011;4691;47.612;7.610;2023-02-28T08:59:13;42.35;;;18.67;;
9306;SDS011;4691;47.612;7.610;2023-02-28T09:01:38;40.45;;;19.20;;
9306;SDS011;4691;47.612;7.610;2023-02-28T09:04:06;36.10;;;17.33;;
9306;SDS011;4691;47.612;7.610;2023-02-28T09:06:33;33.25;;;17.45;;
9306;SDS011;4691;47.612;7.610;2023-02-28T09:08:59;42.67;;;18.95;;
9306;SDS011;4691;47.612;7.610;2023-02-28T09:11:25;36.80;;;18.00;;
9306;SDS011;4691;47.612;7.610;2023-02-28T09:13:51;31.42;;;17.48;;
9306;SDS011;4691;47.612;7.610;2023-02-28T09:16:17;35.65;;;18.27;;
9306;SDS011;4691;47.612;7.610;2023-02-28T09:18:42;38.20;;;19.45;;
9306;SDS011;4691;47.612;7.610;2023-02-28T09:21:10;39.13;;;19.70;;
9306;SDS011;4691;47.612;7.610;2023-02-28T09:23:40;38.03;;;19.40;;
9306;SDS011;4691;47.612;7.610;2023-02-28T09:26:06;35.15;;;18.77;;
9306;SDS011;4691;47.612;7.610;2023-02-28T09:28:32;35.20;;;18.20;;
9306;SDS011;4691;47.612;7.610;2023-02-28T09:30:57;32.75;;;16.90;;
9306;SDS011;4691;47.612;7.610;2023-02-28T09:33:23;33.90;;;18.70;;
9306;SDS011;4691;47.612;7.610;2023-02-28T09:35:50;31.42;;;16.98;;
9306;SDS011;4691;47.612;7.610;2023-02-28T09:38:21;36.97;;;19.20;;
9306;SDS011;4691;47.612;7.610;2023-02-28T09:40:49;35.70;;;19.13;;
9306;SDS011;4691;47.612;7.610;2023-02-28T09:43:16;35.10;;;19.00;;
9306;SDS011;4691;47.612;7.610;2023-02-28T09:45:47;41.38;;;20.88;;
9306;SDS011;4691;47.612;7.610;2023-02-28T09:48:24;37.80;;;19.95;;
9306;SDS011;4691;47.612;7.610;2023-02-28T09:51:03;32.83;;;17.83;;
9306;SDS011;4691;47.612;7.610;2023-02-28T09:53:34;34.97;;;19.95;;
9306;SDS011;4691;47.612;7.610;2023-02-28T09:56:05;35.20;;;19.50;;
9306;SDS011;4691;47.612;7.610;2023-02-28T09:58:49;35.22;;;18.83;;
9306;SDS011;4691;47.612;7.610;2023-02-28T10:04:03;37.03;;;18.77;;
9306;SDS011;4691;47.612;7.610;2023-02-28T10:06:39;31.10;;;17.17;;
9306;SDS011;4691;47.612;7.610;2023-02-28T10:09:15;32.53;;;15.73;;
9306;SDS011;4691;47.612;7.610;2023-02-28T10:11:50;33.50;;;16.83;;
9306;SDS011;4691;47.612;7.610;2023-02-28T10:14:19;29.75;;;16.65;;
9306;SDS011;4691;47.612;7.610;2023-02-28T10:19:34;28.50;;;16.85;;
9306;SDS011;4691;47.612;7.610;2023-02-28T10:22:14;29.77;;;16.20;;
9306;SDS011;4691;47.612;7.610;2023-02-28T10:24:51;28.65;;;17.30;;
9306;SDS011;4691;47.612;7.610;2023-02-28T10:27:18;28.15;;;17.13;;
9306;SDS011;4691;47.612;7.610;2023-02-28T10:29:51;33.95;;;17.75;;
9306;SDS011;4691;47.612;7.610;2023-02-28T10:32:19;27.27;;;17.13;;
9306;SDS011;4691;47.612;7.610;2023-02-28T10:34:57;30.13;;;17.52;;
9306;SDS011;4691;47.612;7.610;2023-02-28T10:37:43;29.23;;;17.55;;
9306;SDS011;4691;47.612;7.610;2023-02-28T10:42:42;26.38;;;15.52;;
9306;SDS011;4691;47.612;7.610;2023-02-28T10:45:16;31.05;;;17.50;;
9306;SDS011;4691;47.612;7.610;2023-02-28T10:52:54;32.08;;;18.67;;
9306;SDS011;4691;47.612;7.610;2023-02-28T10:57:45;24.33;;;15.20;;
9306;SDS011;4691;47.612;7.610;2023-02-28T11:00:13;25.65;;;16.05;;
9306;SDS011;4691;47.612;7.610;2023-02-28T11:02:47;26.02;;;15.23;;
9306;SDS011;4691;47.612;7.610;2023-02-28T11:05:29;31.60;;;17.25;;
9306;SDS011;4691;47.612;7.610;2023-02-28T11:07:59;29.80;;;16.40;;
9306;SDS011;4691;47.612;7.610;2023-02-28T11:10:59;28.13;;;15.47;;
9306;SDS011;4691;47.612;7.610;2023-02-28T11:13:31;27.95;;;16.35;;
9306;SDS011;4691;47.612;7.610;2023-02-28T11:16:00;26.52;;;16.02;;
9306;SDS011;4691;47.612;7.610;2023-02-28T11:21:06;27.20;;;16.42;;
9306;SDS011;4691;47.612;7.610;2023-02-28T11:23:34;22.73;;;15.15;;
9306;SDS011;4691;47.612;7.610;2023-02-28T11:26:02;28.67;;;17.17;;
9306;SDS011;4691;47.612;7.610;2023-02-28T11:31:00;23.90;;;15.25;;
9306;SDS011;4691;47.612;7.610;2023-02-28T11:35:51;26.53;;;14.93;;
9306;SDS011;4691;47.612;7.610;2023-02-28T11:38:20;29.20;;;16.02;;
9306;SDS011;4691;47.612;7.610;2023-02-28T11:46:47;22.88;;;14.73;;
9306;SDS011;4691;47.612;7.610;2023-02-28T11:49:21;24.23;;;16.08;;
9306;SDS011;4691;47.612;7.610;2023-02-28T11:52:42;22.92;;;14.35;;
9306;SDS011;4691;47.612;7.610;2023-02-28T11:55:19;25.48;;;14.07;;
9306;SDS011;4691;47.612;7.610;2023-02-28T11:58:14;26.45;;;15.20;;
9306;SDS011;4691;47.612;7.610;2023-02-28T12:01:19;22.88;;;14.57;;
9306;SDS011;4691;47.612;7.610;2023-02-28T12:06:45;30.15;;;17.90;;
9306;SDS011;4691;47.612;7.610;2023-02-28T12:28:10;23.13;;;15.13;;
9306;SDS011;4691;47.612;7.610;2023-02-28T12:30:41;23.20;;;13.93;;
9306;SDS011;4691;47.612;7.610;2023-02-28T12:33:14;26.75;;;15.57;;
9306;SDS011;4691;47.612;7.610;2023-02-28T12:35:56;25.08;;;15.65;;
9306;SDS011;4691;47.612;7.610;2023-02-28T12:38:31;24.05;;;15.15;;
9306;SDS011;4691;47.612;7.610;2023-02-28T12:41:05;21.83;;;14.40;;
9306;SDS011;4691;47.612;7.610;2023-02-28T12:43:39;26.58;;;15.35;;
9306;SDS011;4691;47.612;7.610;2023-02-28T12:46:17;21.77;;;14.35;;
9306;SDS011;4691;47.612;7.610;2023-02-28T12:48:47;25.25;;;15.70;;
9306;SDS011;4691;47.612;7.610;2023-02-28T12:51:17;22.73;;;14.38;;
9306;SDS011;4691;47.612;7.610;2023-02-28T12:53:49;23.30;;;14.80;;
9306;SDS011;4691;47.612;7.610;2023-02-28T12:59:14;21.13;;;13.40;;
9306;SDS011;4691;47.612;7.610;2023-02-28T13:07:32;21.13;;;14.05;;
9306;SDS011;4691;47.612;7.610;2023-02-28T13:10:16;21.52;;;14.23;;
9306;SDS011;4691;47.612;7.610;2023-02-28T13:13:02;25.63;;;15.38;;
9306;SDS011;4691;47.612;7.610;2023-02-28T13:15:28;24.25;;;14.18;;
9306;SDS011;4691;47.612;7.610;2023-02-28T13:17:57;29.77;;;15.07;;
9306;SDS011;4691;47.612;7.610;2023-02-28T13:20:25;24.70;;;14.25;;
9306;SDS011;4691;47.612;7.610;2023-02-28T13:22:54;25.23;;;14.85;;
9306;SDS011;4691;47.612;7.610;2023-02-28T13:27:54;24.23;;;14.43;;
9306;SDS011;4691;47.612;7.610;2023-02-28T13:33:23;25.58;;;15.95;;
9306;SDS011;4691;47.612;7.610;2023-02-28T13:36:26;27.65;;;16.58;;
9306;SDS011;4691;47.612;7.610;2023-02-28T13:38:57;24.05;;;15.02;;
9306;SDS011;4691;47.612;7.610;2023-02-28T13:44:04;23.98;;;14.85;;
9306;SDS011;4691;47.612;7.610;2023-02-28T13:46:30;28.63;;;15.43;;
9306;SDS011;4691;47.612;7.610;2023-02-28T13:49:17;25.42;;;15.93;;
9306;SDS011;4691;47.612;7.610;2023-02-28T13:51:45;31.45;;;17.17;;
9306;SDS011;4691;47.612;7.610;2023-02-28T13:57:20;26.38;;;15.70;;
9306;SDS011;4691;47.612;7.610;2023-02-28T14:03:11;28.05;;;15.85;;
9306;SDS011;4691;47.612;7.610;2023-02-28T14:05:53;26.85;;;16.58;;
9306;SDS011;4691;47.612;7.610;2023-02-28T14:08:33;25.38;;;15.43;;
9306;SDS011;4691;47.612;7.610;2023-02-28T14:11:06;25.65;;;15.85;;
9306;SDS011;4691;47.612;7.610;2023-02-28T14:13:48;24.63;;;15.80;;
9306;SDS011;4691;47.612;7.610;2023-02-28T14:16:16;25.25;;;15.73;;
9306;SDS011;4691;47.612;7.610;2023-02-28T14:18:49;32.13;;;20.40;;
9306;SDS011;4691;47.612;7.610;2023-02-28T14:21:27;27.17;;;16.88;;
9306;SDS011;4691;47.612;7.610;2023-02-28T14:32:33;27.63;;;15.80;;
9306;SDS011;4691;47.612;7.610;2023-02-28T14:35:27;32.20;;;16.88;;
9306;SDS011;4691;47.612;7.610;2023-02-28T14:37:56;27.33;;;16.73;;
9306;SDS011;4691;47.612;7.610;2023-02-28T14:40:29;26.83;;;17.35;;
9306;SDS011;4691;47.612;7.610;2023-02-28T14:43:01;28.20;;;17.75;;
9306;SDS011;4691;47.612;7.610;2023-02-28T14:45:29;26.25;;;16.20;;
9306;SDS011;4691;47.612;7.610;2023-02-28T14:47:56;29.80;;;16.85;;
9306;SDS011;4691;47.612;7.610;2023-02-28T14:50:24;34.88;;;18.42;;
9306;SDS011;4691;47.612;7.610;2023-02-28T14:52:54;30.98;;;18.70;;
9306;SDS011;4691;47.612;7.610;2023-02-28T14:55:24;30.75;;;18.45;;
9306;SDS011;4691;47.612;7.610;2023-02-28T14:57:59;33.80;;;19.20;;
9306;SDS011;4691;47.612;7.610;2023-02-28T15:00:32;31.08;;;17.85;;
9306;SDS011;4691;47.612;7.610;2023-02-28T15:03:00;31.58;;;17.67;;
9306;SDS011;4691;47.612;7.610;2023-02-28T15:05:41;36.58;;;19.33;;
9306;SDS011;4691;47.612;7.610;2023-02-28T15:08:15;35.95;;;18.77;;
9306;SDS011;4691;47.612;7.610;2023-02-28T15:11:00;37.38;;;19.33;;
9306;SDS011;4691;47.612;7.610;2023-02-28T15:16:10;33.58;;;19.65;;
9306;SDS011;4691;47.612;7.610;2023-02-28T15:21:08;35.05;;;20.48;;
9306;SDS011;4691;47.612;7.610;2023-02-28T15:23:38;36.15;;;19.80;;
9306;SDS011;4691;47.612;7.610;2023-02-28T15:26:05;35.95;;;19.08;;
9306;SDS011;4691;47.612;7.610;2023-02-28T15:28:31;36.35;;;19.73;;
9306;SDS011;4691;47.612;7.610;2023-02-28T15:30:59;35.67;;;19.83;;
9306;SDS011;4691;47.612;7.610;2023-02-28T15:33:28;33.42;;;19.42;;
9306;SDS011;4691;47.612;7.610;2023-02-28T15:36:05;38.17;;;18.52;;
9306;SDS011;4691;47.612;7.610;2023-02-28T15:38:42;32.00;;;17.85;;
9306;SDS011;4691;47.612;7.610;2023-02-28T15:41:23;35.60;;;19.90;;
9306;SDS011;4691;47.612;7.610;2023-02-28T15:43:57;34.28;;;18.30;;
9306;SDS011;4691;47.612;7.610;2023-02-28T15:46:39;37.55;;;19.75;;
9306;SDS011;4691;47.612;7.610;2023-02-28T15:49:18;32.88;;;18.52;;
9306;SDS011;4691;47.612;7.610;2023-02-28T15:51:45;36.97;;;19.40;;
9306;SDS011;4691;47.612;7.610;2023-02-28T15:54:15;37.47;;;21.02;;
9306;SDS011;4691;47.612;7.610;2023-02-28T15:56:46;40.58;;;22.23;;
9306;SDS011;4691;47.612;7.610;2023-02-28T15:59:16;34.65;;;19.73;;
9306;SDS011;4691;47.612;7.610;2023-02-28T16:01:44;38.60;;;20.55;;
9306;SDS011;4691;47.612;7.610;2023-02-28T16:04:17;38.42;;;21.60;;
9306;SDS011;4691;47.612;7.610;2023-02-28T16:07:00;32.55;;;19.23;;
9306;SDS011;4691;47.612;7.610;2023-02-28T16:09:27;38.60;;;20.98;;
9306;SDS011;4691;47.612;7.610;2023-02-28T16:11:55;40.45;;;21.67;;
9306;SDS011;4691;47.612;7.610;2023-02-28T16:14:22;39.85;;;21.55;;
9306;SDS011;4691;47.612;7.610;2023-02-28T16:16:50;35.58;;;20.23;;
9306;SDS011;4691;47.612;7.610;2023-02-28T16:19:18;42.08;;;22.10;;
9306;SDS011;4691;47.612;7.610;2023-02-28T16:21:44;37.90;;;21.50;;
9306;SDS011;4691;47.612;7.610;2023-02-28T16:24:10;42.10;;;21.90;;
9306;SDS011;4691;47.612;7.610;2023-02-28T16:26:36;45.78;;;22.65;;
9306;SDS011;4691;47.612;7.610;2023-02-28T16:29:02;39.13;;;21.25;;
9306;SDS011;4691;47.612;7.610;2023-02-28T16:31:28;44.88;;;22.27;;
9306;SDS011;4691;47.612;7.610;2023-02-28T16:33:54;42.70;;;23.35;;
9306;SDS011;4691;47.612;7.610;2023-02-28T16:36:20;43.30;;;22.17;;
9306;SDS011;4691;47.612;7.610;2023-02-28T16:38:48;40.42;;;21.40;;
9306;SDS011;4691;47.612;7.610;2023-02-28T16:41:17;35.90;;;19.73;;
9306;SDS011;4691;47.612;7.610;2023-02-28T16:43:46;43.45;;;23.15;;
9306;SDS011;4691;47.612;7.610;2023-02-28T16:46:14;44.80;;;22.77;;
9306;SDS011;4691;47.612;7.610;2023-02-28T16:48:39;45.70;;;23.83;;
9306;SDS011;4691;47.612;7.610;2023-02-28T16:51:11;43.35;;;22.55;;
9306;SDS011;4691;47.612;7.610;2023-02-28T16:53:37;41.22;;;22.10;;
9306;SDS011;4691;47.612;7.610;2023-02-28T16:56:03;56.95;;;26.60;;
9306;SDS011;4691;47.612;7.610;2023-02-28T16:58:29;55.00;;;26.35;;
9306;SDS011;4691;47.612;7.610;2023-02-28T17:00:54;47.00;;;23.88;;
9306;SDS011;4691;47.612;7.610;2023-02-28T17:03:24;47.20;;;25.25;;
9306;SDS011;4691;47.612;7.610;2023-02-28T17:05:53;45.83;;;23.77;;
9306;SDS011;4691;47.612;7.610;2023-02-28T17:08:19;47.33;;;23.65;;